• Join FlightAware (Why Join?)
  • Login
  • US Flag 
06:56AM EDT


 

Airport Tracker/Info


-or-


 

Live Flight TrackerFlight Track Log ✈ EGF4247 ✈ 06-Jun-2013 ✈ KBUF - KORD

Flight Track Log - Related Links

Times and Time Zones

All times are in EDT time to prevent confusion due to time zone crossing. See the EGF4247 flight status page for this flight to view local times or setup timezone preferences in your user account.

Time Position Orientation Groundspeed Altitude Reporting Facility
EDT Latitude Longitude Course Direction KTS MPH feet Rate Location/Type
04:02PM 42.9500 -78.7000 270° West 163 188 1,400  Level Buffalo TRACON
04:03PM 43.0167 -78.6500 29° Northeast 236 272 3,700 1,800 Climbing Buffalo TRACON
04:04PM 42.9521 -79.0920 277° West  Level FlightAware Approximate
04:04PM 43.0667 -78.6833 334° Northwest 253 291 5,300  Level Buffalo TRACON
04:05PM 42.9626 -79.2173 277° West  Level FlightAware Approximate
04:05PM 43.0500 -78.7833 257° West 266 306 7,300  Level Buffalo TRACON
04:06PM 42.9667 -79.3431 270° West  Level FlightAware Approximate
04:06PM 43.0667 -78.8833 283° West 277 319 9,200  Level Buffalo TRACON
04:07PM 42.9667 -79.4692 270° West  Level FlightAware Approximate
04:07PM 43.0667 -79.0000 270° West 299 344 11,200  Level Buffalo TRACON
04:08PM 43.0500 -79.1167 259° West 290 334 13,800 1,800 Climbing Toronto Center
04:09PM 43.0500 -79.2167 270° West 290 334 14,900 1,260 Climbing Toronto Center
04:10PM 43.0500 -79.3333 270° West 300 345 16,400 1,500 Climbing Toronto Center
04:11PM 43.0500 -79.4500 270° West 310 357 17,900 1,260 Climbing Toronto Center
04:12PM 43.0500 -79.5667 270° West 310 357 19,000 1,020 Climbing Toronto Center
04:13PM 43.0500 -79.7000 270° West 330 380 20,000 900 Climbing Toronto Center
04:14PM 43.0500 -79.8167 270° West 340 391 20,900 1,020 Climbing Toronto Center
04:15PM 43.0500 -79.9500 270° West 350 403 22,100 1,140 Climbing Toronto Center
04:16PM 43.0500 -80.0833 270° West 360 414 23,200 900 Climbing Toronto Center
04:17PM 43.0500 -80.2333 270° West 360 414 24,000 360 Climbing Toronto Center
04:18PM 43.0500 -80.3833 270° West 380 437 24,000  Level Toronto Center
04:19PM 43.0333 -80.5167 260° West 400 460 24,000  Level Toronto Center
04:20PM 43.0333 -80.6833 270° West 410 472 24,000  Level Toronto Center
04:21PM 43.0167 -80.8500 262° West 420 483 24,000  Level Toronto Center
04:22PM 43.0167 -81.0000 270° West 410 472 24,000  Level Toronto Center
04:23PM 43.0167 -81.1667 270° West 400 460 24,000  Level Toronto Center
04:24PM 43.0167 -81.3167 270° West 400 460 24,000  Level Toronto Center
04:25PM 43.0167 -81.4500 270° West 410 472 24,000  Level Toronto Center
04:26PM 43.0167 -81.6167 270° West 410 472 24,000  Level Toronto Center
04:27PM 43.0167 -81.7833 270° West 420 483 24,000  Level Toronto Center
04:28PM 43.0000 -81.9333 261° West 410 472 24,000  Level Toronto Center
04:29PM 43.0000 -82.1000 270° West 410 472 24,000  Level Toronto Center
04:30PM 43.0000 -82.2500 270° West 410 472 24,000  Level Toronto Center
04:31PM 43.0000 -82.3833 270° West 410 472 24,000  Level Toronto Center
04:32PM 43.0000 -82.5667 270° West 410 472 24,000  Level Toronto Center
04:33PM 42.9833 -82.7167 261° West 410 472 24,000  Level Toronto Center
04:33PM 43.0003 -82.7633 296° West 419 482 24,000  Level Cleveland Center
04:34PM 42.9950 -82.9194 267° West 419 482 24,000  Level Cleveland Center
04:35PM 42.9897 -83.0753 267° West 419 482 24,000  Level Cleveland Center
04:36PM 42.9842 -83.2256 267° West 419 482 24,000  Level Cleveland Center
04:37PM 42.9786 -83.3783 267° West 414 476 24,000  Level Cleveland Center
04:38PM 42.9725 -83.5372 267° West 414 476 24,000  Level Cleveland Center
04:39PM 42.9686 -83.6903 268° West 414 476 24,000  Level Cleveland Center
04:40PM 42.9558 -83.8483 264° West 414 476 24,000  Level Cleveland Center
04:41PM 42.9383 -84.0206 262° West 421 484 24,000  Level Cleveland Center
04:42PM 42.9231 -84.1786 263° West 426 490 24,000  Level Cleveland Center
04:43PM 42.9200 -84.2239 265° West 418 481 24,000  Level Chicago Center
04:44PM 42.9025 -84.4117 263° West 418 481 24,000  Level Chicago Center
04:45PM 42.8861 -84.5669 262° West 421 484 24,000  Level Chicago Center
04:47PM 42.8539 -84.8828 262° West 424 488 24,000  Level Chicago Center
04:48PM 42.8367 -85.0389 261° West 418 481 24,000  Level Chicago Center
04:49PM 42.8197 -85.1931 262° West 408 470 24,000  Level Chicago Center
04:50PM 42.8003 -85.3756 262° West 412 474 24,000  Level Chicago Center
04:51PM 42.7822 -85.5300 261° West 412 474 24,000  Level Chicago Center
04:52PM 42.7542 -85.6808 256° West 410 472 24,000 -60 Level Chicago Center
04:53PM 42.7267 -85.8311 256° West 408 470 23,900 -480 Descending Chicago Center
04:54PM 42.6989 -85.9839 256° West 411 473 23,100 -840 Descending Chicago Center
04:55PM 42.6703 -86.1381 256° West 416 479 22,200 -900 Descending Chicago Center
04:56PM 42.6439 -86.2864 256° West 407 468 21,300 -1,020 Descending Chicago Center
04:57PM 42.6106 -86.4583 255° West 395 455 20,100 -1,080 Descending Chicago Center
04:58PM 42.5831 -86.6031 256° West 396 456 19,100 -1,260 Descending Chicago Center
04:59PM 42.5547 -86.7556 256° West 390 449 17,500 -1,440 Descending Chicago Center
05:00PM 42.5197 -86.8775 249° West 380 437 16,200 -1,740 Descending Chicago Center
05:01PM 42.4842 -87.0069 250° West 369 425 14,000 -2,460 Descending Chicago Center
05:02PM 42.4483 -87.1378 250° West 372 428 11,200 -1,980 Descending Chicago Center
05:03PM 42.4058 -87.2869 249° West 357 411 10,000 -600 Descending Chicago Center
05:04PM 42.3728 -87.4139 251° West 347 399 10,000 -540 Level Chicago Center
05:05PM 42.3439 -87.5119 248° West 285 328 9,000 -1,020 Descending Chicago Center
05:07PM 42.2922 -87.5856 227° Southwest 278 320 7,900 -960 Descending Chicago Center
05:08PM 42.2311 -87.6497 218° Southwest 280 322 7,000 -480 Descending Chicago Center
05:09PM 42.1731 -87.7097 217° Southwest 267 307 7,000  Level Chicago Center
05:10PM 42.1042 -87.7822 218° Southwest 264 304 7,000  Level Chicago Center
05:11PM 42.0911 -87.8706 259° West 254 292 7,000  Level Chicago Center
05:11PM 42.1000 -87.9000 292° West 232 267 7,000  Level Chicago TRACON
05:12PM 42.1000 -87.9833 270° West 232 267 7,000 -300 Level Chicago TRACON
05:13PM 42.0833 -88.0667 255° West 227 261 6,400 -1,020 Descending Chicago TRACON
05:14PM 42.0500 -88.1333 236° Southwest 219 252 5,000 -1,320 Descending Chicago TRACON
05:15PM 42.0083 -88.1239 170° South 207 238 4,000 -1,140 Descending Chicago Center